Terminal Aerodrome Forecast
Issued by NWS Central Illinois

Home | Current Version | Previous Version | Text Only | Print | Product List | Glossary On
Versions: 1 2 3 4 5 6 7 8 9 10 11 12 13 14 15
208
FTUS43 KILX 240520
TAFSPI
TAF
KSPI 240520Z 2406/2506 17016KT P6SM SCT250 WS018/21055KT
     FM241300 18014G24KT P6SM SCT080
     FM241900 19017G27KT P6SM SCT045 BKN100
     FM250000 18015KT P6SM -SHRA VCTS SCT012 OVC025CB=

USA.gov is the U.S. government's official web portal to all federal, state and local government web resources and services.